Terminal Aerodrome Forecast
Issued by NWS

Home | Current Version | Previous Version | Text Only | Print | Product List | Glossary Off
Versions: 1 2 3 4 5 6 7 8 9 10 11 12 13 14

000
FTUS43 KFGF 262300
TAFBJI
TAF
KBJI 262326Z 2700/2724 34005KT P6SM OVC025
      TEMPO 2700/2702 -SN
     FM271200 28005KT P6SM OVC015=

USA.gov is the U.S. government's official web portal to all federal, state and local government web resources and services.